Time;durP1;ratioP1;P1;durP2;ratioP2;P2;SDS_P1;SDS_P2;PMS_P1;PMS_P2;Temp;Humidity;BMP_temperature;BMP_pressure;BME280_temperature;BME280_humidity;BME280_pressure;Samples;Min_cycle;Max_cycle;Signal;HPM_P1;HPM_P2
2022/09/20 00:00:30;;;;;;;2.28;1.40;;;;;;;;;;2056054;28;20022;-92
2022/09/20 00:01:32;;;;;;;3.05;1.45;;;;;;;;;;2064671;28;20041;-92
2022/09/20 00:02:32;;;;;;;2.03;1.30;;;;;;;;;;2056464;28;20106;-92
2022/09/20 00:03:35;;;;;;;2.00;1.17;;;;;;;;;;2056203;28;20018;-91
2022/09/20 00:04:35;;;;;;;2.03;1.10;;;;;;;;;;2064253;28;20462;-92
2022/09/20 00:05:38;;;;;;;1.67;1.00;;;;;;;;;;2064097;28;20030;-91
2022/09/20 00:06:41;;;;;;;2.90;1.50;;;;;;;;;;2056108;28;20137;-91
2022/09/20 00:07:44;;;;;;;2.00;1.27;;;;;;;;;;2063926;28;20034;-92
2022/09/20 00:08:45;;;;;;;2.38;1.23;;;;;;;;;;2056161;28;20022;-92
2022/09/20 00:09:45;;;;;;;2.67;1.50;;;;;;;;;;2064362;28;20041;-92
2022/09/20 00:10:46;;;;;;;2.97;1.33;;;;;;;;;;2063776;28;20481;-91
2022/09/20 00:11:47;;;;;;;1.50;1.20;;;;;;;;;;2063827;28;20458;-92
2022/09/20 00:12:47;;;;;;;1.73;1.35;;;;;;;;;;2055766;28;20506;-92
2022/09/20 00:13:51;;;;;;;1.65;1.30;;;;;;;;;;2063645;28;20018;-92
2022/09/20 00:14:52;;;;;;;1.20;1.00;;;;;;;;;;2064583;28;20022;-92
2022/09/20 00:15:53;;;;;;;2.17;1.35;;;;;;;;;;2063956;28;20025;-92
2022/09/20 00:16:53;;;;;;;1.92;1.60;;;;;;;;;;2056149;28;20023;-91
2022/09/20 00:17:54;;;;;;;2.53;1.20;;;;;;;;;;2064049;28;20145;-92
2022/09/20 00:18:55;;;;;;;;;;;;;;;;;;2056391;28;20045;-90
2022/09/20 00:19:55;;;;;;;1.98;1.35;;;;;;;;;;2056021;28;20393;-93
2022/09/20 00:20:56;;;;;;;2.20;1.30;;;;;;;;;;2064114;28;20117;-92
2022/09/20 00:21:56;;;;;;;2.30;1.10;;;;;;;;;;2064084;28;20473;-91
2022/09/20 00:22:57;;;;;;;1.52;1.10;;;;;;;;;;2056359;28;20486;-93
2022/09/20 00:23:57;;;;;;;1.15;1.00;;;;;;;;;;2064128;28;20509;-92
2022/09/20 00:24:58;;;;;;;2.05;1.30;;;;;;;;;;2056114;28;20034;-93
2022/09/20 00:26:03;;;;;;;1.67;1.33;;;;;;;;;;2055789;28;20029;-92
2022/09/20 00:27:04;;;;;;;3.63;1.30;;;;;;;;;;2056801;28;20437;-92
2022/09/20 00:28:05;;;;;;;2.13;1.60;;;;;;;;;;2056218;28;20023;-92
2022/09/20 00:29:06;;;;;;;1.63;1.30;;;;;;;;;;2056001;28;20034;-92
2022/09/20 00:30:08;;;;;;;2.65;1.33;;;;;;;;;;2055993;28;20026;-92
2022/09/20 00:31:10;;;;;;;1.15;1.05;;;;;;;;;;2056000;28;20336;-91
2022/09/20 00:32:11;;;;;;;1.77;1.23;;;;;;;;;;2063981;28;20022;-93
2022/09/20 00:33:11;;;;;;;1.40;1.20;;;;;;;;;;2056270;28;20085;-92
2022/09/20 00:35:30;;;;;;;2.83;1.40;;;;;;;;;;2064206;28;19909;-92
2022/09/20 00:36:31;;;;;;;2.60;1.60;;;;;;;;;;2063910;28;20113;-92
2022/09/20 00:37:32;;;;;;;2.58;1.23;;;;;;;;;;2055689;28;20038;-92
2022/09/20 00:38:32;;;;;;;3.05;1.33;;;;;;;;;;2063970;28;20038;-91
2022/09/20 00:39:33;;;;;;;1.67;1.23;;;;;;;;;;2064560;28;20065;-92
2022/09/20 00:40:33;;;;;;;3.00;1.10;;;;;;;;;;2064525;28;20465;-91
2022/09/20 00:41:34;;;;;;;1.95;1.35;;;;;;;;;;2063990;28;20080;-93
2022/09/20 00:42:34;;;;;;;1.17;1.00;;;;;;;;;;2056058;28;20034;-91
2022/09/20 00:43:43;;;;;;;1.63;1.30;;;;;;;;;;2055704;28;20022;-91
2022/09/20 00:44:55;;;;;;;2.20;1.35;;;;;;;;;;2056875;28;20026;-91
2022/09/20 00:45:56;;;;;;;2.40;1.27;;;;;;;;;;2063693;28;20243;-92
2022/09/20 00:46:58;;;;;;;2.55;1.00;;;;;;;;;;2055704;28;20490;-91
2022/09/20 00:48:17;;;;;;;1.75;1.15;;;;;;;;;;2063626;28;20187;-91
2022/09/20 00:49:23;;;;;;;2.35;1.30;;;;;;;;;;2063879;28;20507;-92
2022/09/20 00:50:43;;;;;;;1.52;1.00;;;;;;;;;;2056520;28;20019;-91
2022/09/20 00:52:00;;;;;;;2.72;1.45;;;;;;;;;;2058038;28;20022;-92
2022/09/20 00:53:10;;;;;;;1.98;1.10;;;;;;;;;;2057829;28;20354;-91
2022/09/20 00:54:14;;;;;;;1.65;1.40;;;;;;;;;;2056766;28;20022;-90
2022/09/20 00:55:16;;;;;;;2.72;1.10;;;;;;;;;;2063987;28;20030;-91
2022/09/20 00:56:23;;;;;;;1.98;1.17;;;;;;;;;;2063559;28;20030;-91
2022/09/20 00:57:24;;;;;;;1.65;1.20;;;;;;;;;;2063871;28;20030;-90
2022/09/20 00:58:27;;;;;;;2.20;1.30;;;;;;;;;;2063604;28;20033;-92
2022/09/20 00:59:33;;;;;;;2.08;1.38;;;;;;;;;;2055751;28;20030;-91
2022/09/20 01:00:34;;;;;;;1.05;0.93;;;;;;;;;;2056177;28;20117;-91
2022/09/20 01:01:35;;;;;;;5.63;1.50;;;;;;;;;;2055497;28;20471;-91
2022/09/20 01:02:40;;;;;;;3.60;1.15;;;;;;;;;;2063317;28;20485;-90
2022/09/20 01:03:41;;;;;;;1.95;1.13;;;;;;;;;;2055965;28;20426;-91
2022/09/20 01:04:43;;;;;;;1.15;1.05;;;;;;;;;;2063317;28;20025;-89
2022/09/20 01:05:44;;;;;;;1.40;1.20;;;;;;;;;;2055390;28;20038;-90
2022/09/20 01:06:45;;;;;;;1.48;1.17;;;;;;;;;;2063007;28;20033;-90
2022/09/20 01:07:49;;;;;;;1.67;1.15;;;;;;;;;;2063835;28;20037;-90
2022/09/20 01:08:51;;;;;;;1.75;1.15;;;;;;;;;;2063022;28;20033;-90
2022/09/20 01:09:51;;;;;;;1.88;1.20;;;;;;;;;;2062926;28;20156;-90
2022/09/20 01:10:52;;;;;;;1.77;1.02;;;;;;;;;;2062888;28;20464;-90
2022/09/20 01:11:54;;;;;;;;;;;;;;;;;;2063481;28;20106;-90
2022/09/20 01:12:55;;;;;;;4.90;1.40;;;;;;;;;;2055763;28;19960;-92
2022/09/20 01:13:56;;;;;;;2.42;1.00;;;;;;;;;;2063245;28;20030;-90
2022/09/20 01:14:58;;;;;;;1.40;0.90;;;;;;;;;;2063041;28;20037;-90
2022/09/20 01:16:00;;;;;;;3.47;1.13;;;;;;;;;;2063262;28;20065;-91
2022/09/20 01:17:03;;;;;;;2.25;1.20;;;;;;;;;;2063511;28;20026;-92
2022/09/20 01:18:06;;;;;;;2.00;1.10;;;;;;;;;;2063032;28;20053;-91
2022/09/20 01:19:32;;;;;;;2.88;1.25;;;;;;;;;;2055424;28;20106;-90
2022/09/20 01:20:37;;;;;;;2.33;1.20;;;;;;;;;;2057672;28;20111;-91
2022/09/20 01:21:38;;;;;;;1.40;1.15;;;;;;;;;;2055864;28;20063;-92
2022/09/20 01:22:38;;;;;;;1.60;1.20;;;;;;;;;;2063382;28;20022;-91
2022/09/20 01:24:02;;;;;;;2.83;1.15;;;;;;;;;;2063349;28;20076;-91
2022/09/20 01:25:41;;;;;;;1.27;1.02;;;;;;;;;;2058083;28;20117;-89
2022/09/20 01:27:19;;;;;;;2.25;1.10;;;;;;;;;;2045186;28;20044;-92
2022/09/20 01:28:20;;;;;;;1.85;0.98;;;;;;;;;;2060174;28;20456;-92
2022/09/20 01:29:47;;;;;;;1.20;1.00;;;;;;;;;;2055377;28;20037;-92
2022/09/20 01:30:51;;;;;;;1.13;0.90;;;;;;;;;;2058880;28;20026;-92
2022/09/20 01:31:59;;;;;;;1.20;1.10;;;;;;;;;;2063578;28;20161;-92
2022/09/20 01:33:10;;;;;;;3.15;1.25;;;;;;;;;;2063777;28;20026;-92
2022/09/20 01:34:14;;;;;;;2.47;1.10;;;;;;;;;;2064017;28;20481;-91
2022/09/20 01:35:18;;;;;;;1.60;1.23;;;;;;;;;;2063385;28;20113;-93
2022/09/20 01:36:30;;;;;;;1.33;1.05;;;;;;;;;;2056007;28;20036;-91
2022/09/20 01:37:48;;;;;;;1.67;1.13;;;;;;;;;;2056993;28;20057;-91
2022/09/20 01:39:06;;;;;;;5.03;1.40;;;;;;;;;;2065680;28;20393;-92
2022/09/20 01:40:37;;;;;;;2.53;1.30;;;;;;;;;;2065867;28;20121;-92
2022/09/20 01:41:37;;;;;;;1.90;1.30;;;;;;;;;;2061235;28;20532;-92
2022/09/20 01:42:49;;;;;;;2.85;1.65;;;;;;;;;;2055672;28;20031;-93
2022/09/20 01:44:14;;;;;;;1.75;1.20;;;;;;;;;;2057108;28;20478;-91
2022/09/20 01:45:24;;;;;;;1.67;0.90;;;;;;;;;;2058255;28;20022;-90
2022/09/20 01:46:33;;;;;;;1.60;1.00;;;;;;;;;;2063396;28;20062;-90
2022/09/20 01:47:41;;;;;;;2.10;1.20;;;;;;;;;;2064234;28;20057;-91
2022/09/20 01:48:42;;;;;;;2.10;1.02;;;;;;;;;;2063899;28;20022;-91
2022/09/20 01:50:22;;;;;;;3.00;1.02;;;;;;;;;;2057739;28;20050;-91
2022/09/20 01:51:43;;;;;;;1.30;1.20;;;;;;;;;;2072006;28;20080;-90
2022/09/20 01:52:52;;;;;;;1.55;1.10;;;;;;;;;;2068135;28;20026;-90
2022/09/20 01:54:06;;;;;;;2.40;1.20;;;;;;;;;;2065688;28;20183;-90
2022/09/20 01:55:44;;;;;;;2.03;1.15;;;;;;;;;;2059699;28;20027;-91
2022/09/20 01:57:08;;;;;;;3.78;1.08;;;;;;;;;;2063970;28;20018;-91
2022/09/20 01:58:34;;;;;;;2.00;1.00;;;;;;;;;;2054371;28;20505;-91
2022/09/20 02:00:10;;;;;;;1.23;1.13;;;;;;;;;;2071006;28;20083;-90
2022/09/20 02:01:47;;;;;;;1.42;1.10;;;;;;;;;;2057618;28;20046;-91
2022/09/20 02:03:15;;;;;;;1.38;1.00;;;;;;;;;;2059824;28;20029;-91
2022/09/20 02:04:49;;;;;;;2.00;1.35;;;;;;;;;;2058584;28;20109;-91
2022/09/20 02:06:13;;;;;;;1.00;0.90;;;;;;;;;;2059332;28;20106;-91
2022/09/20 02:07:19;;;;;;;1.17;1.00;;;;;;;;;;2056524;28;20046;-91
2022/09/20 02:08:33;;;;;;;1.20;0.90;;;;;;;;;;2063253;28;20026;-91
2022/09/20 02:09:58;;;;;;;2.33;1.45;;;;;;;;;;2063958;28;20022;-91
2022/09/20 02:10:58;;;;;;;2.60;1.02;;;;;;;;;;2071045;28;20107;-91
2022/09/20 02:12:16;;;;;;;;;;;;;;;;;;2071725;28;20100;-91
2022/09/20 02:13:25;;;;;;;3.13;1.20;;;;;;;;;;2057255;28;20436;-90
2022/09/20 02:14:47;;;;;;;2.08;0.93;;;;;;;;;;2056058;28;20121;-92
2022/09/20 02:15:56;;;;;;;1.25;0.90;;;;;;;;;;2060010;28;20144;-91
2022/09/20 02:17:12;;;;;;;3.22;1.35;;;;;;;;;;2055924;28;20050;-90
2022/09/20 02:18:35;;;;;;;1.00;0.90;;;;;;;;;;2060505;28;20073;-90
2022/09/20 02:20:09;;;;;;;1.23;1.13;;;;;;;;;;2057492;28;20145;-89
2022/09/20 02:21:28;;;;;;;1.42;1.05;;;;;;;;;;2058839;28;20023;-90
2022/09/20 02:23:13;;;;;;;1.58;0.95;;;;;;;;;;2056988;28;20130;-89
2022/09/20 02:24:19;;;;;;;1.02;0.93;;;;;;;;;;1706699;28;10128707;-89
2022/09/20 02:25:45;;;;;;;1.30;1.20;;;;;;;;;;2056226;28;20558;-89
2022/09/20 02:27:15;;;;;;;1.88;0.80;;;;;;;;;;2063286;28;20260;-89
2022/09/20 02:28:21;;;;;;;1.02;1.02;;;;;;;;;;2063253;28;20070;-89
2022/09/20 02:30:13;;;;;;;1.08;0.98;;;;;;;;;;2063242;28;20026;-89
2022/09/20 02:31:38;;;;;;;2.03;1.07;;;;;;;;;;2054225;28;20031;-90
2022/09/20 02:32:38;;;;;;;1.95;0.90;;;;;;;;;;2051055;28;20356;-91
2022/09/20 02:33:42;;;;;;;;;;;;;;;;;;2046886;28;20087;-91
2022/09/20 02:35:04;;;;;;;0.82;0.70;;;;;;;;;;2054909;28;20048;-90
2022/09/20 02:36:13;;;;;;;2.70;0.80;;;;;;;;;;2057513;28;20423;-90
2022/09/20 02:37:32;;;;;;;1.17;1.00;;;;;;;;;;2063803;28;20453;-90
2022/09/20 02:38:45;;;;;;;1.83;0.93;;;;;;;;;;2064444;28;20026;-90
2022/09/20 02:40:15;;;;;;;2.90;1.27;;;;;;;;;;2058071;28;20029;-91
2022/09/20 02:41:42;;;;;;;1.30;0.66;;;;;;;;;;1709144;28;10204919;-91
2022/09/20 02:43:13;;;;;;;0.75;0.75;;;;;;;;;;2064772;28;20026;-91
2022/09/20 02:44:38;;;;;;;0.90;0.90;;;;;;;;;;2060389;28;20034;-90
2022/09/20 02:46:36;;;;;;;1.23;1.05;;;;;;;;;;2060516;28;20086;-90
2022/09/20 02:47:39;;;;;;;1.92;1.00;;;;;;;;;;2039559;29;20610;-91
2022/09/20 02:48:50;;;;;;;2.13;1.15;;;;;;;;;;2040040;29;20544;-91
2022/09/20 02:50:27;;;;;;;1.92;1.20;;;;;;;;;;2051612;28;20027;-88
2022/09/20 02:51:40;;;;;;;1.35;1.00;;;;;;;;;;2064638;28;20157;-92
2022/09/20 02:53:17;;;;;;;1.08;1.00;;;;;;;;;;2058387;28;20161;-92
2022/09/20 02:54:35;;;;;;;1.02;0.93;;;;;;;;;;2061156;28;20491;-92
2022/09/20 02:56:09;;;;;;;1.80;0.90;;;;;;;;;;2058647;28;20097;-92
2022/09/20 02:57:09;;;;;;;0.93;0.80;;;;;;;;;;2060734;28;20369;-92
2022/09/20 02:58:23;;;;;;;;;;;;;;;;;;2056855;28;20023;-91
2022/09/20 02:59:27;;;;;;;3.70;0.77;;;;;;;;;;2064934;28;19909;-92
2022/09/20 03:00:39;;;;;;;1.42;0.90;;;;;;;;;;2065223;28;20547;-93
2022/09/20 03:02:17;;;;;;;1.77;1.00;;;;;;;;;;2065091;28;20105;-91
2022/09/20 03:03:53;;;;;;;1.63;1.00;;;;;;;;;;2064322;28;20477;-91
2022/09/20 03:05:13;;;;;;;0.85;0.85;;;;;;;;;;2052078;28;20066;-90
2022/09/20 03:06:40;;;;;;;0.95;0.90;;;;;;;;;;2024351;28;10367233;-91
2022/09/20 03:08:25;;;;;;;1.80;1.42;;;;;;;;;;2059406;28;20662;-91
2022/09/20 03:10:09;;;;;;;1.10;0.90;;;;;;;;;;2062183;28;20027;-90
2022/09/20 03:11:26;;;;;;;0.93;0.82;;;;;;;;;;2061769;28;20022;-91
2022/09/20 03:12:57;;;;;;;1.10;1.00;;;;;;;;;;2067431;28;20114;-91
2022/09/20 03:14:10;;;;;;;;;;;;;;;;;;2065396;28;20064;-91
2022/09/20 03:15:36;;;;;;;1.40;0.80;;;;;;;;;;2064138;28;19910;-91
2022/09/20 03:17:03;;;;;;;1.20;1.10;;;;;;;;;;2043294;29;20074;-91
2022/09/20 03:18:32;;;;;;;1.52;0.95;;;;;;;;;;2059588;28;20026;-92
2022/09/20 03:20:02;;;;;;;0.98;0.80;;;;;;;;;;2064713;28;20045;-91
2022/09/20 03:21:05;;;;;;;1.23;0.80;;;;;;;;;;2065015;28;20481;-91
2022/09/20 03:22:38;;;;;;;1.63;1.02;;;;;;;;;;2065196;28;20533;-91
2022/09/20 03:23:59;;;;;;;1.20;0.90;;;;;;;;;;2064485;28;20026;-90
2022/09/20 03:24:59;;;;;;;;;;;;;;;;;;2059516;28;20037;-91
2022/09/20 03:26:23;;;;;;;3.30;0.83;;;;;;;;;;2064646;28;19910;-93
2022/09/20 03:27:50;;;;;;;4.10;1.00;;;;;;;;;;2064390;28;20084;-92
2022/09/20 03:29:13;;;;;;;3.13;1.20;;;;;;;;;;2064976;28;20030;-91
2022/09/20 03:30:50;;;;;;;2.10;1.05;;;;;;;;;;1720561;28;10001726;-91
2022/09/20 03:31:56;;;;;;;1.85;1.08;;;;;;;;;;2064546;28;20018;-92
2022/09/20 03:33:12;;;;;;;0.82;0.80;;;;;;;;;;2056787;28;20037;-91
2022/09/20 03:34:22;;;;;;;1.88;1.02;;;;;;;;;;2058345;28;20517;-91
2022/09/20 03:35:45;;;;;;;2.05;1.00;;;;;;;;;;2057340;28;20039;-91
2022/09/20 03:37:00;;;;;;;1.30;0.93;;;;;;;;;;2058880;28;20030;-92
2022/09/20 03:38:24;;;;;;;1.73;1.13;;;;;;;;;;2058224;28;20441;-92
2022/09/20 03:39:58;;;;;;;0.90;0.75;;;;;;;;;;2059632;28;20069;-91
2022/09/20 03:41:23;;;;;;;1.45;0.98;;;;;;;;;;2064586;28;20034;-89
2022/09/20 03:42:27;;;;;;;2.03;1.10;;;;;;;;;;2063867;28;20419;-90
2022/09/20 03:43:36;;;;;;;0.93;0.82;;;;;;;;;;2056197;28;20032;-89
2022/09/20 03:44:45;;;;;;;1.15;1.05;;;;;;;;;;2057133;28;20038;-91
2022/09/20 03:46:07;;;;;;;2.33;1.88;;;;;;;;;;2057176;28;20031;-91
2022/09/20 03:47:32;;;;;;;1.88;1.38;;;;;;;;;;2064450;28;20102;-91
2022/09/20 03:48:59;;;;;;;1.55;1.15;;;;;;;;;;2063204;28;20026;-90
2022/09/20 03:50:12;;;;;;;1.27;0.88;;;;;;;;;;2043468;29;20066;-91
2022/09/20 03:51:31;;;;;;;2.35;0.80;;;;;;;;;;2064206;28;20116;-88
2022/09/20 03:52:52;;;;;;;1.45;0.98;;;;;;;;;;2063537;28;20065;-90
2022/09/20 03:54:10;;;;;;;;;;;;;;;;;;2064572;28;20533;-90
2022/09/20 03:55:12;;;;;;;1.23;0.90;;;;;;;;;;2063803;28;19914;-90
2022/09/20 03:56:19;;;;;;;1.33;1.10;;;;;;;;;;2064083;28;20109;-90
2022/09/20 03:57:33;;;;;;;2.78;1.10;;;;;;;;;;2064607;28;20478;-90
2022/09/20 03:58:53;;;;;;;0.93;0.82;;;;;;;;;;2063680;28;20661;-89
2022/09/20 04:00:13;;;;;;;0.90;0.70;;;;;;;;;;2064070;28;20018;-90
2022/09/20 04:01:28;;;;;;;0.95;0.90;;;;;;;;;;2063982;28;20085;-90
2022/09/20 04:02:54;;;;;;;1.92;0.98;;;;;;;;;;2057820;28;20498;-89
2022/09/20 04:04:01;;;;;;;0.82;0.80;;;;;;;;;;2054495;28;20117;-91
2022/09/20 04:05:08;;;;;;;2.72;1.00;;;;;;;;;;2058486;28;20050;-94
2022/09/20 04:06:28;;;;;;;2.03;0.93;;;;;;;;;;2058602;28;20022;-96
2022/09/20 04:08:02;;;;;;;1.45;0.88;;;;;;;;;;2066109;28;20042;-95
2022/09/20 04:09:28;;;;;;;1.20;0.98;;;;;;;;;;2068632;28;20038;-95
2022/09/20 04:10:58;;;;;;;1.73;1.00;;;;;;;;;;2061248;28;20050;-92
2022/09/20 04:12:19;;;;;;;1.42;0.95;;;;;;;;;;2060984;28;20078;-91
2022/09/20 04:13:46;;;;;;;1.60;0.80;;;;;;;;;;2058403;28;20040;-90
2022/09/20 04:15:22;;;;;;;1.27;0.90;;;;;;;;;;2064337;28;20192;-91
2022/09/20 04:16:36;;;;;;;1.15;1.00;;;;;;;;;;2063938;28;20560;-91
2022/09/20 04:18:05;;;;;;;2.00;1.45;;;;;;;;;;2057668;28;20049;-91
2022/09/20 04:19:15;;;;;;;1.65;0.90;;;;;;;;;;2059373;28;20160;-91
2022/09/20 04:20:27;;;;;;;1.27;0.88;;;;;;;;;;2057214;28;20126;-90
2022/09/20 04:21:56;;;;;;;1.77;1.20;;;;;;;;;;2057924;28;20486;-91
2022/09/20 04:23:01;;;;;;;1.48;1.10;;;;;;;;;;2060632;28;20026;-91
2022/09/20 04:24:01;;;;;;;2.35;1.00;;;;;;;;;;2056627;28;20050;-91
2022/09/20 04:25:05;;;;;;;;;;;;;;;;;;2056158;28;20137;-92
2022/09/20 04:26:06;;;;;;;1.15;0.90;;;;;;;;;;2063525;28;19960;-90
2022/09/20 04:27:30;;;;;;;2.13;1.15;;;;;;;;;;2062835;28;20624;-91
2022/09/20 04:28:53;;;;;;;1.02;0.98;;;;;;;;;;2063219;28;20056;-91
2022/09/20 04:30:17;;;;;;;1.20;1.10;;;;;;;;;;2063618;28;20049;-91
2022/09/20 04:31:41;;;;;;;1.58;1.10;;;;;;;;;;2063838;28;20030;-89
2022/09/20 04:33:00;;;;;;;1.35;1.13;;;;;;;;;;2063383;28;20418;-89
2022/09/20 04:34:03;;;;;;;2.88;1.17;;;;;;;;;;2063266;28;20030;-90
2022/09/20 04:36:55;;;;;;;1.73;1.10;;;;;;;;;;2063611;28;20508;-92
2022/09/20 04:37:57;;;;;;;1.42;1.30;;;;;;;;;;2063208;28;20080;-90
2022/09/20 04:39:34;;;;;;;3.42;1.42;;;;;;;;;;2055014;28;20026;-91
2022/09/20 04:40:40;;;;;;;1.65;1.10;;;;;;;;;;2059839;28;20068;-91
2022/09/20 04:42:16;;;;;;;1.60;1.13;;;;;;;;;;2055771;28;20042;-89
2022/09/20 04:43:38;;;;;;;2.60;1.00;;;;;;;;;;2059729;28;20065;-91
2022/09/20 04:45:19;;;;;;;0.70;0.70;;;;;;;;;;2057702;28;20402;-93
2022/09/20 04:46:47;;;;;;;1.83;1.20;;;;;;;;;;1718720;28;10001874;-89
2022/09/20 04:47:59;;;;;;;1.83;1.00;;;;;;;;;;1713408;28;10209405;-91
2022/09/20 04:49:24;;;;;;;2.13;1.75;;;;;;;;;;2062868;28;20065;-91
2022/09/20 04:50:53;;;;;;;1.42;1.17;;;;;;;;;;2058704;28;20397;-90
2022/09/20 04:52:27;;;;;;;2.35;1.15;;;;;;;;;;2058965;28;20483;-90
2022/09/20 04:53:33;;;;;;;3.80;1.40;;;;;;;;;;2067050;28;20058;-89
2022/09/20 04:54:59;;;;;;;3.88;1.30;;;;;;;;;;2068234;28;20497;-89
2022/09/20 04:56:18;;;;;;;1.35;1.10;;;;;;;;;;2063627;28;20049;-90
2022/09/20 04:57:40;;;;;;;1.50;1.40;;;;;;;;;;2057621;28;20437;-89
2022/09/20 04:58:47;;;;;;;1.92;1.83;;;;;;;;;;2057651;28;20574;-89
2022/09/20 05:00:11;;;;;;;3.13;1.27;;;;;;;;;;2055573;28;20027;-89
2022/09/20 05:01:15;;;;;;;2.03;1.27;;;;;;;;;;2063265;28;20470;-89
2022/09/20 05:02:18;;;;;;;2.47;1.30;;;;;;;;;;2062876;28;20038;-89
2022/09/20 05:03:57;;;;;;;1.77;1.05;;;;;;;;;;2062806;28;20046;-89
2022/09/20 05:05:13;;;;;;;2.33;1.52;;;;;;;;;;2062834;28;20026;-89
2022/09/20 05:06:46;;;;;;;1.27;1.13;;;;;;;;;;2063085;28;20109;-90
2022/09/20 05:07:55;;;;;;;2.65;1.35;;;;;;;;;;2062820;28;20069;-89
2022/09/20 05:10:48;;;;;;;1.10;0.90;;;;;;;;;;2058513;28;20098;-89
2022/09/20 05:12:15;;;;;;;1.30;1.00;;;;;;;;;;2063211;28;20030;-90
2022/09/20 05:13:34;;;;;;;1.75;1.27;;;;;;;;;;2063107;28;20041;-90
2022/09/20 05:15:10;;;;;;;1.98;1.15;;;;;;;;;;2063255;28;20437;-90
2022/09/20 05:16:38;;;;;;;1.85;1.38;;;;;;;;;;2054998;28;20079;-90
2022/09/20 05:18:17;;;;;;;1.90;1.30;;;;;;;;;;2055053;28;20042;-91
2022/09/20 05:19:43;;;;;;;1.20;1.10;;;;;;;;;;2054049;28;20038;-91
2022/09/20 05:21:00;;;;;;;2.25;1.15;;;;;;;;;;2054575;28;20022;-90
2022/09/20 05:22:28;;;;;;;1.48;1.33;;;;;;;;;;2048721;28;20427;-90
2022/09/20 05:23:55;;;;;;;2.08;1.15;;;;;;;;;;2057713;28;20453;-91
2022/09/20 05:25:01;;;;;;;2.05;1.80;;;;;;;;;;2055072;28;20018;-89
2022/09/20 05:26:08;;;;;;;1.42;1.10;;;;;;;;;;2054669;28;20057;-87
2022/09/20 05:27:57;;;;;;;1.95;1.30;;;;;;;;;;2053992;28;20029;-89
2022/09/20 05:29:11;;;;;;;1.38;1.27;;;;;;;;;;2052885;28;20054;-90
2022/09/20 05:30:21;;;;;;;1.80;1.20;;;;;;;;;;2048345;28;20462;-91
2022/09/20 05:32:06;;;;;;;3.45;1.27;;;;;;;;;;2047704;28;20050;-91
2022/09/20 05:33:12;;;;;;;1.83;1.73;;;;;;;;;;2054783;28;20528;-92
2022/09/20 05:34:52;;;;;;;1.95;1.02;;;;;;;;;;2055696;28;20037;-92
2022/09/20 05:36:34;;;;;;;1.70;1.20;;;;;;;;;;2054195;28;20069;-91
2022/09/20 05:37:40;;;;;;;2.92;1.33;;;;;;;;;;2060687;28;20042;-88
2022/09/20 05:38:58;;;;;;;2.17;1.40;;;;;;;;;;2054856;28;20102;-90
2022/09/20 05:40:12;;;;;;;2.03;1.38;;;;;;;;;;2054158;28;20058;-90
2022/09/20 05:41:41;;;;;;;1.45;1.20;;;;;;;;;;1695461;28;10322224;-89
2022/09/20 05:42:47;;;;;;;1.55;1.20;;;;;;;;;;2050490;28;20062;-89
2022/09/20 05:44:12;;;;;;;2.65;1.00;;;;;;;;;;2047378;28;20023;-90
2022/09/20 05:45:37;;;;;;;2.70;1.00;;;;;;;;;;2054362;28;20054;-90
2022/09/20 05:47:00;;;;;;;1.20;1.10;;;;;;;;;;2054347;28;20051;-89
2022/09/20 05:48:09;;;;;;;3.40;1.55;;;;;;;;;;2053921;28;20276;-90
2022/09/20 05:49:29;;;;;;;4.18;1.77;;;;;;;;;;1711122;28;10000118;-90
2022/09/20 05:50:35;;;;;;;1.63;1.30;;;;;;;;;;2048481;28;20589;-89
2022/09/20 05:51:46;;;;;;;1.50;1.10;;;;;;;;;;2054538;28;20524;-90
2022/09/20 05:52:57;;;;;;;1.50;1.40;;;;;;;;;;2055167;28;20117;-91
2022/09/20 05:54:26;;;;;;;1.77;1.30;;;;;;;;;;2056350;28;20406;-94
2022/09/20 05:55:51;;;;;;;2.13;1.65;;;;;;;;;;2051475;28;20060;-94
2022/09/20 05:57:10;;;;;;;1.92;1.58;;;;;;;;;;2051321;28;20018;-93
2022/09/20 05:58:22;;;;;;;2.53;1.30;;;;;;;;;;2050650;28;20189;-94
2022/09/20 05:59:39;;;;;;;2.63;1.52;;;;;;;;;;2049538;28;20034;-94
2022/09/20 06:00:56;;;;;;;2.17;1.10;;;;;;;;;;2056533;28;20023;-94
2022/09/20 06:02:16;;;;;;;1.17;1.08;;;;;;;;;;2056055;28;20460;-95
2022/09/20 06:03:29;;;;;;;1.20;1.10;;;;;;;;;;2050739;28;20076;-94
2022/09/20 06:04:47;;;;;;;1.67;1.10;;;;;;;;;;2049701;28;20027;-95
2022/09/20 06:06:12;;;;;;;2.35;1.80;;;;;;;;;;2056473;28;20058;-93
2022/09/20 06:08:02;;;;;;;2.90;1.67;;;;;;;;;;2057085;28;20027;-93
2022/09/20 06:09:28;;;;;;;1.58;1.17;;;;;;;;;;2054360;28;20043;-95
2022/09/20 06:10:40;;;;;;;1.30;1.20;;;;;;;;;;2051893;28;20037;-95
2022/09/20 06:12:07;;;;;;;2.25;1.50;;;;;;;;;;2050107;28;20502;-94
2022/09/20 06:13:40;;;;;;;1.60;1.50;;;;;;;;;;2053633;28;20031;-95
2022/09/20 06:15:10;;;;;;;1.15;1.02;;;;;;;;;;2054977;28;20023;-96
2022/09/20 06:16:46;;;;;;;2.88;1.67;;;;;;;;;;2057410;28;20352;-94
2022/09/20 06:18:20;;;;;;;1.92;1.55;;;;;;;;;;2046158;29;20067;-94
2022/09/20 06:20:01;;;;;;;3.20;1.33;;;;;;;;;;2055655;28;20062;-95
2022/09/20 06:21:08;;;;;;;1.02;0.93;;;;;;;;;;2057510;28;20614;-95
2022/09/20 06:22:30;;;;;;;1.20;1.02;;;;;;;;;;2058393;28;20127;-96
2022/09/20 06:23:31;;;;;;;0.93;0.82;;;;;;;;;;2055098;28;20136;-96
2022/09/20 06:24:45;;;;;;;2.35;1.45;;;;;;;;;;2049915;28;20478;-96
2022/09/20 06:25:55;;;;;;;1.10;0.70;;;;;;;;;;2058408;28;20033;-96
2022/09/20 06:26:57;;;;;;;1.63;1.00;;;;;;;;;;2051991;28;20057;-95
2022/09/20 06:28:17;;;;;;;1.50;1.10;;;;;;;;;;2051407;28;20518;-96
2022/09/20 06:29:28;;;;;;;1.20;0.50;;;;;;;;;;2052623;28;20126;-95
2022/09/20 06:30:50;;;;;;;1.40;0.80;;;;;;;;;;2052083;28;20042;-94
2022/09/20 06:31:52;;;;;;;1.60;0.75;;;;;;;;;;2052133;28;20027;-94
2022/09/20 06:32:55;;;;;;;1.55;0.50;;;;;;;;;;2049652;28;20031;-92
2022/09/20 06:33:59;;;;;;;1.00;0.70;;;;;;;;;;2057866;28;20116;-91
2022/09/20 06:35:01;;;;;;;1.48;0.57;;;;;;;;;;2059952;28;20027;-91
2022/09/20 06:42:02;;;;;;;1.23;0.60;;;;;;;;;;2060557;28;20106;-92
2022/09/20 06:43:03;;;;;;;1.35;0.90;;;;;;;;;;2057024;28;20026;-92
2022/09/20 06:44:05;;;;;;;1.20;0.60;;;;;;;;;;2050469;28;20059;-91
2022/09/20 06:45:05;;;;;;;1.75;0.70;;;;;;;;;;2049547;28;20035;-90
2022/09/20 06:46:06;;;;;;;1.90;0.80;;;;;;;;;;2056654;28;20058;-91
2022/09/20 06:47:10;;;;;;;1.08;0.68;;;;;;;;;;2056804;28;20050;-91
2022/09/20 06:48:12;;;;;;;1.23;0.70;;;;;;;;;;2057148;28;20053;-94
2022/09/20 06:49:14;;;;;;;3.08;0.90;;;;;;;;;;2056893;28;20552;-94
2022/09/20 06:50:16;;;;;;;1.20;0.88;;;;;;;;;;2059460;28;20048;-91
2022/09/20 06:51:20;;;;;;;0.85;0.77;;;;;;;;;;2059124;28;20019;-91
2022/09/20 06:52:21;;;;;;;1.38;0.60;;;;;;;;;;2051754;28;20046;-90
2022/09/20 06:53:30;;;;;;;0.57;0.50;;;;;;;;;;2049660;28;20031;-91
2022/09/20 06:54:30;;;;;;;1.60;0.75;;;;;;;;;;2049448;28;20495;-92
2022/09/20 06:55:40;;;;;;;1.08;0.60;;;;;;;;;;2048883;28;20238;-92
2022/09/20 06:56:43;;;;;;;2.42;0.88;;;;;;;;;;2049603;28;20474;-91
2022/09/20 06:57:43;;;;;;;1.38;0.70;;;;;;;;;;2048732;28;20036;-91
2022/09/20 06:58:44;;;;;;;2.17;0.93;;;;;;;;;;2048757;28;20023;-90
2022/09/20 06:59:44;;;;;;;5.63;1.30;;;;;;;;;;2056594;28;20492;-91
2022/09/20 07:00:45;;;;;;;1.38;0.77;;;;;;;;;;2064495;28;20045;-91
2022/09/20 07:01:46;;;;;;;1.13;0.77;;;;;;;;;;2056276;28;20023;-89
2022/09/20 07:02:47;;;;;;;1.48;0.77;;;;;;;;;;2048044;29;20521;-89
2022/09/20 07:03:48;;;;;;;1.15;0.70;;;;;;;;;;2056014;28;20026;-90
2022/09/20 07:04:54;;;;;;;0.80;0.60;;;;;;;;;;2056193;28;20450;-89
2022/09/20 07:05:55;;;;;;;1.88;0.95;;;;;;;;;;2048654;28;20023;-92
2022/09/20 07:08:52;;;;;;;3.15;1.25;;;;;;;;;;2057514;28;20023;-92
2022/09/20 07:09:53;;;;;;;1.50;0.70;;;;;;;;;;2057445;28;20026;-93
2022/09/20 07:10:53;;;;;;;2.05;0.73;;;;;;;;;;2056651;28;20023;-92
2022/09/20 07:11:55;;;;;;;1.05;0.85;;;;;;;;;;2048160;28;20375;-93
2022/09/20 07:12:59;;;;;;;1.30;1.20;;;;;;;;;;2048584;28;20348;-91
2022/09/20 07:14:00;;;;;;;5.88;1.02;;;;;;;;;;2048386;28;20042;-91
2022/09/20 07:15:01;;;;;;;1.00;0.70;;;;;;;;;;2048215;28;20087;-91
2022/09/20 07:16:03;;;;;;;1.02;0.70;;;;;;;;;;2048122;29;20482;-92
2022/09/20 07:17:05;;;;;;;1.60;0.60;;;;;;;;;;2048523;28;20027;-91
2022/09/20 07:18:06;;;;;;;1.65;0.70;;;;;;;;;;2048215;28;20074;-90
2022/09/20 07:19:07;;;;;;;0.65;0.50;;;;;;;;;;2048135;28;20024;-90
2022/09/20 07:20:07;;;;;;;0.82;0.55;;;;;;;;;;2056080;28;20450;-92
2022/09/20 07:21:11;;;;;;;1.35;0.95;;;;;;;;;;2048416;28;20419;-90
2022/09/20 07:22:11;;;;;;;1.80;0.80;;;;;;;;;;2056758;28;20517;-95
2022/09/20 07:23:14;;;;;;;2.30;0.75;;;;;;;;;;2055530;28;20065;-92
2022/09/20 07:24:15;;;;;;;1.00;0.60;;;;;;;;;;2048291;28;20032;-92
2022/09/20 07:25:17;;;;;;;1.33;0.80;;;;;;;;;;2048496;29;20019;-94
2022/09/20 07:26:26;;;;;;;2.08;0.77;;;;;;;;;;2048966;28;20078;-93
2022/09/20 07:27:28;;;;;;;1.25;0.80;;;;;;;;;;2049817;28;20389;-94
2022/09/20 07:28:31;;;;;;;1.52;0.52;;;;;;;;;;2056645;28;20082;-91
2022/09/20 07:29:34;;;;;;;1.15;1.05;;;;;;;;;;2056521;28;20030;-93
2022/09/20 07:30:34;;;;;;;0.95;0.85;;;;;;;;;;2049133;28;20027;-91
2022/09/20 07:31:34;;;;;;;0.90;0.63;;;;;;;;;;2056886;28;20031;-91
2022/09/20 07:32:35;;;;;;;1.08;0.80;;;;;;;;;;2064112;28;20037;-91
2022/09/20 07:33:35;;;;;;;0.88;0.80;;;;;;;;;;2057169;28;20102;-92
2022/09/20 07:34:36;;;;;;;1.25;0.82;;;;;;;;;;2056972;28;20429;-91
2022/09/20 07:35:36;;;;;;;1.15;0.80;;;;;;;;;;2057103;28;20033;-91